sensor_id;sensor_type;location;lat;lon;timestamp;P1;durP1;ratioP1;P2;durP2;ratioP2
54929;SDS011;40833;53.238;6.576;2023-02-15T00:00:20;63.53;;;32.90;;
54929;SDS011;40833;53.238;6.576;2023-02-15T00:02:46;68.00;;;34.50;;
54929;SDS011;40833;53.238;6.576;2023-02-15T00:05:12;66.70;;;33.97;;
54929;SDS011;40833;53.238;6.576;2023-02-15T00:07:37;66.90;;;33.10;;
54929;SDS011;40833;53.238;6.576;2023-02-15T00:10:03;61.17;;;32.27;;
54929;SDS011;40833;53.238;6.576;2023-02-15T00:12:29;62.17;;;32.53;;
54929;SDS011;40833;53.238;6.576;2023-02-15T00:14:55;62.43;;;32.57;;
54929;SDS011;40833;53.238;6.576;2023-02-15T00:17:21;65.40;;;32.43;;
54929;SDS011;40833;53.238;6.576;2023-02-15T00:19:47;59.83;;;30.77;;
54929;SDS011;40833;53.238;6.576;2023-02-15T00:22:12;60.80;;;30.83;;
54929;SDS011;40833;53.238;6.576;2023-02-15T00:24:38;59.00;;;31.10;;
54929;SDS011;40833;53.238;6.576;2023-02-15T00:27:04;55.80;;;30.87;;
54929;SDS011;40833;53.238;6.576;2023-02-15T00:29:29;55.43;;;31.80;;
54929;SDS011;40833;53.238;6.576;2023-02-15T00:31:55;62.23;;;32.47;;
54929;SDS011;40833;53.238;6.576;2023-02-15T00:34:22;51.87;;;29.07;;
54929;SDS011;40833;53.238;6.576;2023-02-15T00:36:49;48.50;;;28.77;;
54929;SDS011;40833;53.238;6.576;2023-02-15T00:39:15;48.97;;;28.47;;
54929;SDS011;40833;53.238;6.576;2023-02-15T00:41:42;51.20;;;28.70;;
54929;SDS011;40833;53.238;6.576;2023-02-15T00:44:08;47.13;;;27.60;;
54929;SDS011;40833;53.238;6.576;2023-02-15T00:46:34;47.23;;;28.30;;
54929;SDS011;40833;53.238;6.576;2023-02-15T00:49:00;47.30;;;29.33;;
54929;SDS011;40833;53.238;6.576;2023-02-15T00:51:26;48.40;;;29.57;;
54929;SDS011;40833;53.238;6.576;2023-02-15T00:53:52;42.93;;;27.27;;
54929;SDS011;40833;53.238;6.576;2023-02-15T00:56:18;47.33;;;27.77;;
54929;SDS011;40833;53.238;6.576;2023-02-15T00:58:44;44.43;;;28.47;;
54929;SDS011;40833;53.238;6.576;2023-02-15T01:01:14;46.10;;;27.33;;
54929;SDS011;40833;53.238;6.576;2023-02-15T01:03:41;44.95;;;27.63;;
54929;SDS011;40833;53.238;6.576;2023-02-15T01:06:07;46.13;;;28.90;;
54929;SDS011;40833;53.238;6.576;2023-02-15T01:08:34;45.10;;;27.30;;
54929;SDS011;40833;53.238;6.576;2023-02-15T01:11:07;43.67;;;26.63;;
54929;SDS011;40833;53.238;6.576;2023-02-15T01:13:35;49.60;;;27.97;;
54929;SDS011;40833;53.238;6.576;2023-02-15T01:16:00;46.63;;;28.23;;
54929;SDS011;40833;53.238;6.576;2023-02-15T01:18:27;49.53;;;29.07;;
54929;SDS011;40833;53.238;6.576;2023-02-15T01:20:53;46.50;;;28.63;;
54929;SDS011;40833;53.238;6.576;2023-02-15T01:23:19;47.20;;;29.03;;
54929;SDS011;40833;53.238;6.576;2023-02-15T01:25:44;43.50;;;27.53;;
54929;SDS011;40833;53.238;6.576;2023-02-15T01:28:10;48.30;;;29.23;;
54929;SDS011;40833;53.238;6.576;2023-02-15T01:30:36;48.50;;;29.27;;
54929;SDS011;40833;53.238;6.576;2023-02-15T01:33:02;51.60;;;29.07;;
54929;SDS011;40833;53.238;6.576;2023-02-15T01:35:27;49.53;;;29.20;;
54929;SDS011;40833;53.238;6.576;2023-02-15T01:37:54;58.10;;;31.70;;
54929;SDS011;40833;53.238;6.576;2023-02-15T01:40:20;46.47;;;29.03;;
54929;SDS011;40833;53.238;6.576;2023-02-15T01:42:46;48.30;;;29.90;;
54929;SDS011;40833;53.238;6.576;2023-02-15T01:47:45;48.50;;;27.57;;
54929;SDS011;40833;53.238;6.576;2023-02-15T01:50:13;44.50;;;28.40;;
54929;SDS011;40833;53.238;6.576;2023-02-15T01:56:16;45.53;;;27.43;;
54929;SDS011;40833;53.238;6.576;2023-02-15T01:58:35;44.73;;;27.67;;
54929;SDS011;40833;53.238;6.576;2023-02-15T02:01:02;43.57;;;26.43;;
54929;SDS011;40833;53.238;6.576;2023-02-15T02:06:12;44.50;;;27.07;;
54929;SDS011;40833;53.238;6.576;2023-02-15T02:08:38;46.07;;;27.73;;
54929;SDS011;40833;53.238;6.576;2023-02-15T02:11:12;41.43;;;25.90;;
54929;SDS011;40833;53.238;6.576;2023-02-15T02:13:39;44.63;;;28.17;;
54929;SDS011;40833;53.238;6.576;2023-02-15T02:16:09;42.83;;;26.97;;
54929;SDS011;40833;53.238;6.576;2023-02-15T02:41:36;48.80;;;28.93;;
54929;SDS011;40833;53.238;6.576;2023-02-15T02:47:02;43.30;;;26.93;;
54929;SDS011;40833;53.238;6.576;2023-02-15T02:49:45;43.83;;;26.00;;
54929;SDS011;40833;53.238;6.576;2023-02-15T02:55:51;44.93;;;25.57;;
54929;SDS011;40833;53.238;6.576;2023-02-15T02:58:34;42.17;;;25.37;;
54929;SDS011;40833;53.238;6.576;2023-02-15T03:01:14;45.13;;;25.77;;
54929;SDS011;40833;53.238;6.576;2023-02-15T03:03:45;42.60;;;25.77;;
54929;SDS011;40833;53.238;6.576;2023-02-15T03:06:58;44.20;;;25.30;;
54929;SDS011;40833;53.238;6.576;2023-02-15T03:11:50;45.47;;;26.60;;
54929;SDS011;40833;53.238;6.576;2023-02-15T03:14:16;45.10;;;26.33;;
54929;SDS011;40833;53.238;6.576;2023-02-15T03:16:45;46.23;;;27.43;;
54929;SDS011;40833;53.238;6.576;2023-02-15T03:19:14;51.23;;;28.23;;
54929;SDS011;40833;53.238;6.576;2023-02-15T03:21:47;47.87;;;27.30;;
54929;SDS011;40833;53.238;6.576;2023-02-15T03:24:23;53.27;;;29.23;;
54929;SDS011;40833;53.238;6.576;2023-02-15T03:26:52;54.50;;;29.20;;
54929;SDS011;40833;53.238;6.576;2023-02-15T03:29:20;53.10;;;29.37;;
54929;SDS011;40833;53.238;6.576;2023-02-15T03:31:49;58.00;;;30.60;;
54929;SDS011;40833;53.238;6.576;2023-02-15T03:34:21;57.92;;;30.98;;
54929;SDS011;40833;53.238;6.576;2023-02-15T03:44:48;67.40;;;35.07;;
54929;SDS011;40833;53.238;6.576;2023-02-15T03:47:23;62.47;;;34.50;;
54929;SDS011;40833;53.238;6.576;2023-02-15T03:50:04;56.80;;;32.53;;
54929;SDS011;40833;53.238;6.576;2023-02-15T03:53:02;55.43;;;33.10;;
54929;SDS011;40833;53.238;6.576;2023-02-15T03:55:31;59.33;;;33.33;;
54929;SDS011;40833;53.238;6.576;2023-02-15T03:57:57;53.27;;;31.93;;
54929;SDS011;40833;53.238;6.576;2023-02-15T04:00:43;52.77;;;31.33;;
54929;SDS011;40833;53.238;6.576;2023-02-15T04:03:40;49.27;;;30.83;;
54929;SDS011;40833;53.238;6.576;2023-02-15T04:06:11;49.47;;;30.13;;
54929;SDS011;40833;53.238;6.576;2023-02-15T04:08:37;47.60;;;29.10;;
54929;SDS011;40833;53.238;6.576;2023-02-15T04:11:21;47.87;;;29.87;;
54929;SDS011;40833;53.238;6.576;2023-02-15T04:13:47;50.60;;;28.90;;
54929;SDS011;40833;53.238;6.576;2023-02-15T04:16:12;46.73;;;29.67;;
54929;SDS011;40833;53.238;6.576;2023-02-15T04:18:40;49.50;;;29.80;;
54929;SDS011;40833;53.238;6.576;2023-02-15T04:21:25;43.23;;;27.93;;
54929;SDS011;40833;53.238;6.576;2023-02-15T04:24:12;50.50;;;29.27;;
54929;SDS011;40833;53.238;6.576;2023-02-15T04:26:57;46.13;;;27.97;;
54929;SDS011;40833;53.238;6.576;2023-02-15T04:29:24;50.57;;;29.77;;
54929;SDS011;40833;53.238;6.576;2023-02-15T04:31:50;47.97;;;29.60;;
54929;SDS011;40833;53.238;6.576;2023-02-15T04:34:17;53.77;;;32.23;;
54929;SDS011;40833;53.238;6.576;2023-02-15T04:36:43;51.87;;;31.37;;
54929;SDS011;40833;53.238;6.576;2023-02-15T04:39:09;51.43;;;31.37;;
54929;SDS011;40833;53.238;6.576;2023-02-15T04:41:38;52.33;;;32.33;;
54929;SDS011;40833;53.238;6.576;2023-02-15T04:44:04;50.53;;;31.83;;
54929;SDS011;40833;53.238;6.576;2023-02-15T04:46:30;62.07;;;34.77;;
54929;SDS011;40833;53.238;6.576;2023-02-15T04:48:55;72.80;;;39.80;;
54929;SDS011;40833;53.238;6.576;2023-02-15T04:51:21;72.03;;;37.77;;
54929;SDS011;40833;53.238;6.576;2023-02-15T04:53:47;65.30;;;36.40;;
54929;SDS011;40833;53.238;6.576;2023-02-15T04:56:13;79.50;;;38.47;;
54929;SDS011;40833;53.238;6.576;2023-02-15T04:58:39;79.77;;;39.00;;
54929;SDS011;40833;53.238;6.576;2023-02-15T05:01:08;82.90;;;40.83;;
54929;SDS011;40833;53.238;6.576;2023-02-15T05:03:34;69.20;;;37.30;;
54929;SDS011;40833;53.238;6.576;2023-02-15T05:06:00;76.33;;;38.13;;
54929;SDS011;40833;53.238;6.576;2023-02-15T05:08:26;72.77;;;37.00;;
54929;SDS011;40833;53.238;6.576;2023-02-15T05:10:51;72.70;;;35.27;;
54929;SDS011;40833;53.238;6.576;2023-02-15T05:13:17;74.00;;;37.07;;
54929;SDS011;40833;53.238;6.576;2023-02-15T05:15:47;69.07;;;35.43;;
54929;SDS011;40833;53.238;6.576;2023-02-15T05:18:14;66.50;;;35.57;;
54929;SDS011;40833;53.238;6.576;2023-02-15T05:20:40;66.93;;;35.07;;
54929;SDS011;40833;53.238;6.576;2023-02-15T05:23:06;64.63;;;35.00;;
54929;SDS011;40833;53.238;6.576;2023-02-15T05:25:31;63.17;;;34.03;;
54929;SDS011;40833;53.238;6.576;2023-02-15T05:28:15;66.10;;;34.40;;
54929;SDS011;40833;53.238;6.576;2023-02-15T05:30:44;71.07;;;35.90;;
54929;SDS011;40833;53.238;6.576;2023-02-15T05:33:24;65.20;;;35.53;;
54929;SDS011;40833;53.238;6.576;2023-02-15T05:35:49;71.03;;;36.43;;
54929;SDS011;40833;53.238;6.576;2023-02-15T05:38:16;69.97;;;36.40;;
54929;SDS011;40833;53.238;6.576;2023-02-15T05:40:41;69.23;;;35.83;;
54929;SDS011;40833;53.238;6.576;2023-02-15T05:43:07;64.63;;;35.97;;
54929;SDS011;40833;53.238;6.576;2023-02-15T05:45:33;64.90;;;34.53;;
54929;SDS011;40833;53.238;6.576;2023-02-15T05:47:59;73.67;;;38.53;;
54929;SDS011;40833;53.238;6.576;2023-02-15T05:50:24;69.67;;;37.07;;
54929;SDS011;40833;53.238;6.576;2023-02-15T05:52:50;63.27;;;36.40;;
54929;SDS011;40833;53.238;6.576;2023-02-15T05:55:16;72.57;;;36.20;;
54929;SDS011;40833;53.238;6.576;2023-02-15T05:57:42;59.53;;;34.10;;
54929;SDS011;40833;53.238;6.576;2023-02-15T06:00:08;71.40;;;37.93;;
54929;SDS011;40833;53.238;6.576;2023-02-15T06:02:37;65.87;;;35.73;;
54929;SDS011;40833;53.238;6.576;2023-02-15T06:05:03;63.43;;;34.70;;
54929;SDS011;40833;53.238;6.576;2023-02-15T06:07:30;72.57;;;39.67;;
54929;SDS011;40833;53.238;6.576;2023-02-15T06:09:56;71.83;;;38.30;;
54929;SDS011;40833;53.238;6.576;2023-02-15T06:12:22;73.40;;;40.40;;
54929;SDS011;40833;53.238;6.576;2023-02-15T06:14:48;77.40;;;41.73;;
54929;SDS011;40833;53.238;6.576;2023-02-15T06:17:14;73.87;;;39.53;;
54929;SDS011;40833;53.238;6.576;2023-02-15T06:19:41;73.23;;;40.27;;
54929;SDS011;40833;53.238;6.576;2023-02-15T06:22:07;80.87;;;41.70;;
54929;SDS011;40833;53.238;6.576;2023-02-15T06:24:33;93.53;;;45.77;;
54929;SDS011;40833;53.238;6.576;2023-02-15T06:26:58;84.80;;;43.53;;
54929;SDS011;40833;53.238;6.576;2023-02-15T06:29:24;78.83;;;41.37;;
54929;SDS011;40833;53.238;6.576;2023-02-15T06:31:49;95.13;;;45.67;;
54929;SDS011;40833;53.238;6.576;2023-02-15T06:34:15;104.30;;;49.27;;
54929;SDS011;40833;53.238;6.576;2023-02-15T06:36:41;83.70;;;43.07;;
54929;SDS011;40833;53.238;6.576;2023-02-15T06:39:07;96.67;;;45.00;;
54929;SDS011;40833;53.238;6.576;2023-02-15T06:41:32;88.17;;;44.60;;
54929;SDS011;40833;53.238;6.576;2023-02-15T06:43:58;83.93;;;42.73;;
54929;SDS011;40833;53.238;6.576;2023-02-15T06:46:24;86.83;;;41.60;;
54929;SDS011;40833;53.238;6.576;2023-02-15T06:48:50;82.93;;;43.43;;
54929;SDS011;40833;53.238;6.576;2023-02-15T06:51:15;89.77;;;45.07;;
54929;SDS011;40833;53.238;6.576;2023-02-15T06:53:41;102.83;;;47.83;;
54929;SDS011;40833;53.238;6.576;2023-02-15T06:56:08;83.67;;;41.37;;
54929;SDS011;40833;53.238;6.576;2023-02-15T06:58:37;82.40;;;41.33;;
54929;SDS011;40833;53.238;6.576;2023-02-15T07:01:04;77.63;;;41.00;;
54929;SDS011;40833;53.238;6.576;2023-02-15T07:03:31;95.77;;;45.77;;
54929;SDS011;40833;53.238;6.576;2023-02-15T07:05:58;81.63;;;45.00;;
54929;SDS011;40833;53.238;6.576;2023-02-15T07:08:25;88.17;;;45.03;;
54929;SDS011;40833;53.238;6.576;2023-02-15T07:10:52;89.77;;;43.87;;
54929;SDS011;40833;53.238;6.576;2023-02-15T07:13:19;86.50;;;44.13;;
54929;SDS011;40833;53.238;6.576;2023-02-15T07:15:47;100.77;;;49.33;;
54929;SDS011;40833;53.238;6.576;2023-02-15T07:18:13;91.20;;;46.87;;
54929;SDS011;40833;53.238;6.576;2023-02-15T07:20:39;88.90;;;47.30;;
54929;SDS011;40833;53.238;6.576;2023-02-15T07:23:07;84.13;;;43.37;;
54929;SDS011;40833;53.238;6.576;2023-02-15T07:25:33;92.63;;;45.43;;
54929;SDS011;40833;53.238;6.576;2023-02-15T07:28:03;90.40;;;46.87;;
54929;SDS011;40833;53.238;6.576;2023-02-15T07:30:29;89.47;;;45.57;;
54929;SDS011;40833;53.238;6.576;2023-02-15T07:32:58;81.53;;;44.70;;
54929;SDS011;40833;53.238;6.576;2023-02-15T07:35:46;82.03;;;43.47;;
54929;SDS011;40833;53.238;6.576;2023-02-15T07:38:13;80.27;;;43.30;;
54929;SDS011;40833;53.238;6.576;2023-02-15T07:40:38;85.27;;;44.23;;
54929;SDS011;40833;53.238;6.576;2023-02-15T07:43:04;91.17;;;45.77;;
54929;SDS011;40833;53.238;6.576;2023-02-15T07:45:30;94.63;;;46.43;;
54929;SDS011;40833;53.238;6.576;2023-02-15T07:47:56;79.57;;;42.90;;
54929;SDS011;40833;53.238;6.576;2023-02-15T07:50:21;84.43;;;43.67;;
54929;SDS011;40833;53.238;6.576;2023-02-15T07:52:48;91.33;;;44.60;;
54929;SDS011;40833;53.238;6.576;2023-02-15T07:55:13;87.90;;;44.43;;
54929;SDS011;40833;53.238;6.576;2023-02-15T07:57:46;90.70;;;44.20;;
54929;SDS011;40833;53.238;6.576;2023-02-15T08:00:14;88.80;;;46.23;;
54929;SDS011;40833;53.238;6.576;2023-02-15T08:02:41;82.53;;;42.07;;
54929;SDS011;40833;53.238;6.576;2023-02-15T08:05:12;102.50;;;49.27;;
54929;SDS011;40833;53.238;6.576;2023-02-15T08:07:37;84.83;;;44.53;;
54929;SDS011;40833;53.238;6.576;2023-02-15T08:10:03;96.20;;;47.47;;
54929;SDS011;40833;53.238;6.576;2023-02-15T08:12:29;82.07;;;45.90;;
54929;SDS011;40833;53.238;6.576;2023-02-15T08:14:55;89.37;;;45.00;;
54929;SDS011;40833;53.238;6.576;2023-02-15T08:17:21;89.80;;;47.47;;
54929;SDS011;40833;53.238;6.576;2023-02-15T08:19:47;95.87;;;46.27;;
54929;SDS011;40833;53.238;6.576;2023-02-15T08:22:13;96.87;;;47.70;;
54929;SDS011;40833;53.238;6.576;2023-02-15T08:24:39;90.90;;;45.90;;
54929;SDS011;40833;53.238;6.576;2023-02-15T08:27:06;105.40;;;51.20;;
54929;SDS011;40833;53.238;6.576;2023-02-15T08:29:34;94.37;;;47.97;;
54929;SDS011;40833;53.238;6.576;2023-02-15T08:32:08;97.07;;;49.53;;
54929;SDS011;40833;53.238;6.576;2023-02-15T08:34:37;99.93;;;49.43;;
54929;SDS011;40833;53.238;6.576;2023-02-15T08:37:03;91.43;;;46.77;;
54929;SDS011;40833;53.238;6.576;2023-02-15T08:39:30;106.67;;;50.07;;
54929;SDS011;40833;53.238;6.576;2023-02-15T08:41:56;102.90;;;50.43;;
54929;SDS011;40833;53.238;6.576;2023-02-15T08:44:22;102.73;;;49.30;;
54929;SDS011;40833;53.238;6.576;2023-02-15T08:46:48;97.17;;;49.40;;
54929;SDS011;40833;53.238;6.576;2023-02-15T08:49:20;100.50;;;47.40;;
54929;SDS011;40833;53.238;6.576;2023-02-15T08:51:47;95.43;;;48.67;;
54929;SDS011;40833;53.238;6.576;2023-02-15T08:54:14;95.50;;;48.00;;
54929;SDS011;40833;53.238;6.576;2023-02-15T08:56:42;97.57;;;49.90;;
54929;SDS011;40833;53.238;6.576;2023-02-15T08:59:13;93.90;;;47.27;;
54929;SDS011;40833;53.238;6.576;2023-02-15T09:01:41;90.00;;;46.75;;
54929;SDS011;40833;53.238;6.576;2023-02-15T09:04:07;85.07;;;46.13;;
54929;SDS011;40833;53.238;6.576;2023-02-15T09:06:37;77.40;;;42.30;;
54929;SDS011;40833;53.238;6.576;2023-02-15T09:09:04;91.37;;;45.80;;
54929;SDS011;40833;53.238;6.576;2023-02-15T09:11:33;76.90;;;42.07;;
54929;SDS011;40833;53.238;6.576;2023-02-15T09:14:13;81.00;;;42.63;;
54929;SDS011;40833;53.238;6.576;2023-02-15T09:16:41;81.60;;;44.57;;
54929;SDS011;40833;53.238;6.576;2023-02-15T09:19:13;83.37;;;43.27;;
54929;SDS011;40833;53.238;6.576;2023-02-15T09:21:40;77.27;;;43.10;;
54929;SDS011;40833;53.238;6.576;2023-02-15T09:24:10;74.63;;;41.07;;
54929;SDS011;40833;53.238;6.576;2023-02-15T09:26:38;68.77;;;39.73;;
54929;SDS011;40833;53.238;6.576;2023-02-15T09:29:05;68.10;;;39.30;;
54929;SDS011;40833;53.238;6.576;2023-02-15T09:31:33;68.23;;;39.50;;
54929;SDS011;40833;53.238;6.576;2023-02-15T09:34:03;65.03;;;37.37;;
54929;SDS011;40833;53.238;6.576;2023-02-15T09:36:29;65.73;;;39.50;;
54929;SDS011;40833;53.238;6.576;2023-02-15T09:38:58;67.07;;;39.17;;
54929;SDS011;40833;53.238;6.576;2023-02-15T09:44:11;58.30;;;35.03;;
54929;SDS011;40833;53.238;6.576;2023-02-15T10:06:32;55.90;;;33.60;;
54929;SDS011;40833;53.238;6.576;2023-02-15T10:20:00;58.93;;;34.73;;
54929;SDS011;40833;53.238;6.576;2023-02-15T10:22:53;60.90;;;34.13;;
54929;SDS011;40833;53.238;6.576;2023-02-15T10:28:17;57.07;;;34.13;;
54929;SDS011;40833;53.238;6.576;2023-02-15T10:30:48;60.23;;;34.33;;
54929;SDS011;40833;53.238;6.576;2023-02-15T10:33:21;58.23;;;33.47;;
54929;SDS011;40833;53.238;6.576;2023-02-15T10:38:36;54.13;;;32.80;;
54929;SDS011;40833;53.238;6.576;2023-02-15T10:53:03;59.17;;;33.80;;
54929;SDS011;40833;53.238;6.576;2023-02-15T10:58:31;54.80;;;31.07;;
54929;SDS011;40833;53.238;6.576;2023-02-15T11:06:43;51.30;;;31.70;;
54929;SDS011;40833;53.238;6.576;2023-02-15T11:09:16;53.73;;;31.83;;
54929;SDS011;40833;53.238;6.576;2023-02-15T11:11:48;55.60;;;32.73;;
54929;SDS011;40833;53.238;6.576;2023-02-15T11:17:10;55.13;;;32.90;;
54929;SDS011;40833;53.238;6.576;2023-02-15T11:22:34;58.43;;;32.80;;
54929;SDS011;40833;53.238;6.576;2023-02-15T11:25:00;55.60;;;33.30;;
54929;SDS011;40833;53.238;6.576;2023-02-15T11:27:29;55.17;;;30.83;;
54929;SDS011;40833;53.238;6.576;2023-02-15T11:30:10;53.13;;;31.40;;
54929;SDS011;40833;53.238;6.576;2023-02-15T11:32:45;59.20;;;32.43;;
54929;SDS011;40833;53.238;6.576;2023-02-15T11:35:26;61.90;;;32.30;;
54929;SDS011;40833;53.238;6.576;2023-02-15T11:38:18;54.53;;;31.63;;
54929;SDS011;40833;53.238;6.576;2023-02-15T11:40:52;54.13;;;31.17;;
54929;SDS011;40833;53.238;6.576;2023-02-15T11:43:40;49.70;;;29.57;;
54929;SDS011;40833;53.238;6.576;2023-02-15T11:46:07;56.50;;;31.37;;
54929;SDS011;40833;53.238;6.576;2023-02-15T11:48:37;48.43;;;30.20;;
54929;SDS011;40833;53.238;6.576;2023-02-15T11:51:03;49.70;;;28.67;;
54929;SDS011;40833;53.238;6.576;2023-02-15T11:53:31;56.47;;;29.53;;
54929;SDS011;40833;53.238;6.576;2023-02-15T11:56:01;54.25;;;29.85;;
54929;SDS011;40833;53.238;6.576;2023-02-15T12:01:33;52.53;;;30.07;;
54929;SDS011;40833;53.238;6.576;2023-02-15T12:06:46;49.33;;;28.70;;
54929;SDS011;40833;53.238;6.576;2023-02-15T12:09:20;49.27;;;26.80;;
54929;SDS011;40833;53.238;6.576;2023-02-15T12:11:53;53.50;;;28.57;;
54929;SDS011;40833;53.238;6.576;2023-02-15T12:14:19;47.10;;;26.87;;
54929;SDS011;40833;53.238;6.576;2023-02-15T12:16:49;48.40;;;27.10;;
54929;SDS011;40833;53.238;6.576;2023-02-15T12:21:49;52.10;;;26.57;;
54929;SDS011;40833;53.238;6.576;2023-02-15T12:27:15;46.50;;;24.43;;
54929;SDS011;40833;53.238;6.576;2023-02-15T12:29:51;52.23;;;26.53;;
54929;SDS011;40833;53.238;6.576;2023-02-15T12:32:27;48.00;;;26.73;;
54929;SDS011;40833;53.238;6.576;2023-02-15T12:35:41;47.67;;;25.83;;
54929;SDS011;40833;53.238;6.576;2023-02-15T12:37:56;52.07;;;27.83;;
54929;SDS011;40833;53.238;6.576;2023-02-15T12:40:27;47.13;;;25.87;;
54929;SDS011;40833;53.238;6.576;2023-02-15T12:42:54;45.27;;;25.87;;
54929;SDS011;40833;53.238;6.576;2023-02-15T12:47:46;49.00;;;27.90;;
54929;SDS011;40833;53.238;6.576;2023-02-15T12:50:38;50.70;;;29.50;;
54929;SDS011;40833;53.238;6.576;2023-02-15T12:55:59;45.90;;;26.83;;
54929;SDS011;40833;53.238;6.576;2023-02-15T12:58:26;50.50;;;27.43;;
54929;SDS011;40833;53.238;6.576;2023-02-15T13:04:00;48.23;;;27.57;;
54929;SDS011;40833;53.238;6.576;2023-02-15T13:06:30;52.67;;;29.90;;
54929;SDS011;40833;53.238;6.576;2023-02-15T13:09:05;51.93;;;29.30;;
54929;SDS011;40833;53.238;6.576;2023-02-15T13:11:38;56.40;;;28.47;;
54929;SDS011;40833;53.238;6.576;2023-02-15T13:14:17;59.70;;;31.03;;
54929;SDS011;40833;53.238;6.576;2023-02-15T13:16:52;50.20;;;29.00;;
54929;SDS011;40833;53.238;6.576;2023-02-15T13:21:53;53.17;;;30.97;;
54929;SDS011;40833;53.238;6.576;2023-02-15T13:24:22;60.23;;;30.50;;
54929;SDS011;40833;53.238;6.576;2023-02-15T13:26:58;54.00;;;30.20;;
54929;SDS011;40833;53.238;6.576;2023-02-15T13:29:26;49.00;;;30.27;;
54929;SDS011;40833;53.238;6.576;2023-02-15T13:31:54;52.23;;;29.20;;
54929;SDS011;40833;53.238;6.576;2023-02-15T13:37:01;53.17;;;29.73;;
54929;SDS011;40833;53.238;6.576;2023-02-15T13:39:45;58.30;;;31.88;;
54929;SDS011;40833;53.238;6.576;2023-02-15T13:42:25;48.83;;;28.80;;
54929;SDS011;40833;53.238;6.576;2023-02-15T13:48:04;53.40;;;28.63;;
54929;SDS011;40833;53.238;6.576;2023-02-15T13:53:36;53.50;;;30.92;;
54929;SDS011;40833;53.238;6.576;2023-02-15T13:56:33;47.80;;;28.77;;
54929;SDS011;40833;53.238;6.576;2023-02-15T14:32:04;44.80;;;26.60;;
54929;SDS011;40833;53.238;6.576;2023-02-15T14:34:56;45.33;;;26.43;;
54929;SDS011;40833;53.238;6.576;2023-02-15T14:40:17;48.40;;;26.93;;
54929;SDS011;40833;53.238;6.576;2023-02-15T14:46:42;49.77;;;26.43;;
54929;SDS011;40833;53.238;6.576;2023-02-15T14:49:33;47.70;;;25.30;;
54929;SDS011;40833;53.238;6.576;2023-02-15T14:52:05;42.70;;;26.13;;
54929;SDS011;40833;53.238;6.576;2023-02-15T15:02:49;42.40;;;24.70;;
54929;SDS011;40833;53.238;6.576;2023-02-15T15:05:46;43.37;;;24.43;;
54929;SDS011;40833;53.238;6.576;2023-02-15T15:08:21;40.03;;;23.53;;
54929;SDS011;40833;53.238;6.576;2023-02-15T15:10:51;40.90;;;24.27;;
54929;SDS011;40833;53.238;6.576;2023-02-15T15:15:55;41.87;;;24.03;;
54929;SDS011;40833;53.238;6.576;2023-02-15T15:21:51;43.83;;;25.17;;
54929;SDS011;40833;53.238;6.576;2023-02-15T15:46:53;43.57;;;25.37;;
54929;SDS011;40833;53.238;6.576;2023-02-15T15:49:41;43.83;;;25.93;;
54929;SDS011;40833;53.238;6.576;2023-02-15T15:52:17;42.33;;;24.87;;
54929;SDS011;40833;53.238;6.576;2023-02-15T15:54:46;48.00;;;24.63;;
54929;SDS011;40833;53.238;6.576;2023-02-15T15:57:15;45.90;;;26.00;;
54929;SDS011;40833;53.238;6.576;2023-02-15T15:59:52;42.20;;;25.20;;
54929;SDS011;40833;53.238;6.576;2023-02-15T16:02:19;42.90;;;24.97;;
54929;SDS011;40833;53.238;6.576;2023-02-15T16:04:45;46.60;;;26.23;;
54929;SDS011;40833;53.238;6.576;2023-02-15T16:07:18;45.57;;;26.00;;
54929;SDS011;40833;53.238;6.576;2023-02-15T16:09:59;42.70;;;26.43;;
54929;SDS011;40833;53.238;6.576;2023-02-15T16:12:27;48.10;;;27.23;;
54929;SDS011;40833;53.238;6.576;2023-02-15T16:14:55;45.40;;;26.97;;
54929;SDS011;40833;53.238;6.576;2023-02-15T16:17:25;44.60;;;25.90;;
54929;SDS011;40833;53.238;6.576;2023-02-15T16:22:25;45.53;;;26.37;;
54929;SDS011;40833;53.238;6.576;2023-02-15T16:27:43;49.37;;;28.43;;
54929;SDS011;40833;53.238;6.576;2023-02-15T16:32:52;46.35;;;26.17;;
54929;SDS011;40833;53.238;6.576;2023-02-15T16:35:38;45.13;;;27.33;;
54929;SDS011;40833;53.238;6.576;2023-02-15T16:38:08;47.43;;;27.47;;
54929;SDS011;40833;53.238;6.576;2023-02-15T16:40:41;52.20;;;29.80;;
54929;SDS011;40833;53.238;6.576;2023-02-15T16:43:18;47.87;;;27.73;;
54929;SDS011;40833;53.238;6.576;2023-02-15T16:45:47;54.00;;;29.77;;
54929;SDS011;40833;53.238;6.576;2023-02-15T16:48:15;46.73;;;27.37;;
54929;SDS011;40833;53.238;6.576;2023-02-15T16:50:47;51.20;;;28.38;;
54929;SDS011;40833;53.238;6.576;2023-02-15T16:53:17;53.50;;;28.73;;
54929;SDS011;40833;53.238;6.576;2023-02-15T16:55:47;51.10;;;28.17;;
54929;SDS011;40833;53.238;6.576;2023-02-15T16:58:36;49.40;;;29.40;;
54929;SDS011;40833;53.238;6.576;2023-02-15T17:01:06;50.30;;;29.33;;
54929;SDS011;40833;53.238;6.576;2023-02-15T17:03:34;49.83;;;29.00;;
54929;SDS011;40833;53.238;6.576;2023-02-15T17:06:01;51.77;;;29.10;;
54929;SDS011;40833;53.238;6.576;2023-02-15T17:14:10;50.87;;;30.30;;
54929;SDS011;40833;53.238;6.576;2023-02-15T17:16:33;51.10;;;30.20;;
54929;SDS011;40833;53.238;6.576;2023-02-15T17:19:31;50.07;;;29.27;;
54929;SDS011;40833;53.238;6.576;2023-02-15T17:22:05;51.77;;;29.33;;
54929;SDS011;40833;53.238;6.576;2023-02-15T17:24:33;51.13;;;30.70;;
54929;SDS011;40833;53.238;6.576;2023-02-15T17:27:06;52.50;;;30.33;;
54929;SDS011;40833;53.238;6.576;2023-02-15T17:30:00;51.73;;;29.43;;
54929;SDS011;40833;53.238;6.576;2023-02-15T17:32:42;50.30;;;31.13;;
54929;SDS011;40833;53.238;6.576;2023-02-15T17:35:22;48.28;;;30.27;;
54929;SDS011;40833;53.238;6.576;2023-02-15T17:40:43;50.43;;;29.80;;
54929;SDS011;40833;53.238;6.576;2023-02-15T17:43:08;52.43;;;30.63;;
54929;SDS011;40833;53.238;6.576;2023-02-15T17:45:43;50.70;;;29.07;;
54929;SDS011;40833;53.238;6.576;2023-02-15T17:48:23;53.17;;;30.60;;
54929;SDS011;40833;53.238;6.576;2023-02-15T17:50:56;52.67;;;30.67;;
54929;SDS011;40833;53.238;6.576;2023-02-15T17:53:23;52.50;;;30.80;;
54929;SDS011;40833;53.238;6.576;2023-02-15T17:55:50;56.17;;;30.27;;
54929;SDS011;40833;53.238;6.576;2023-02-15T17:58:17;52.83;;;30.27;;
54929;SDS011;40833;53.238;6.576;2023-02-15T18:00:45;52.13;;;29.77;;
54929;SDS011;40833;53.238;6.576;2023-02-15T18:06:29;50.93;;;30.63;;
54929;SDS011;40833;53.238;6.576;2023-02-15T18:09:15;51.40;;;31.33;;
54929;SDS011;40833;53.238;6.576;2023-02-15T18:12:02;53.80;;;31.23;;
54929;SDS011;40833;53.238;6.576;2023-02-15T18:14:52;56.20;;;31.70;;
54929;SDS011;40833;53.238;6.576;2023-02-15T18:17:20;57.57;;;31.10;;
54929;SDS011;40833;53.238;6.576;2023-02-15T18:19:51;56.08;;;33.15;;
54929;SDS011;40833;53.238;6.576;2023-02-15T18:22:18;54.73;;;31.63;;
54929;SDS011;40833;53.238;6.576;2023-02-15T18:24:46;53.63;;;31.60;;
54929;SDS011;40833;53.238;6.576;2023-02-15T18:27:13;52.63;;;31.03;;
54929;SDS011;40833;53.238;6.576;2023-02-15T18:29:40;54.17;;;32.37;;
54929;SDS011;40833;53.238;6.576;2023-02-15T18:32:07;56.00;;;32.77;;
54929;SDS011;40833;53.238;6.576;2023-02-15T18:34:37;57.23;;;31.93;;
54929;SDS011;40833;53.238;6.576;2023-02-15T18:37:05;54.47;;;30.83;;
54929;SDS011;40833;53.238;6.576;2023-02-15T18:39:40;57.70;;;33.10;;